sensor_id;sensor_type;location;lat;lon;timestamp;P1;durP1;ratioP1;P2;durP2;ratioP2
67065;SDS011;53978;43.846;25.952;2023-09-18T00:01:36;5.60;;;2.90;;
67065;SDS011;53978;43.846;25.952;2023-09-18T00:04:04;4.65;;;2.95;;
67065;SDS011;53978;43.846;25.952;2023-09-18T00:06:30;3.83;;;3.05;;
67065;SDS011;53978;43.846;25.952;2023-09-18T00:08:56;4.60;;;2.92;;
67065;SDS011;53978;43.846;25.952;2023-09-18T00:11:21;5.28;;;3.00;;
67065;SDS011;53978;43.846;25.952;2023-09-18T00:13:47;6.03;;;2.83;;
67065;SDS011;53978;43.846;25.952;2023-09-18T00:16:12;2.83;;;2.47;;
67065;SDS011;53978;43.846;25.952;2023-09-18T00:18:38;3.30;;;2.53;;
67065;SDS011;53978;43.846;25.952;2023-09-18T00:21:04;4.00;;;2.72;;
67065;SDS011;53978;43.846;25.952;2023-09-18T00:23:29;5.55;;;2.50;;
67065;SDS011;53978;43.846;25.952;2023-09-18T00:25:55;4.35;;;2.08;;
67065;SDS011;53978;43.846;25.952;2023-09-18T00:28:20;5.50;;;2.40;;
67065;SDS011;53978;43.846;25.952;2023-09-18T00:30:49;3.92;;;2.30;;
67065;SDS011;53978;43.846;25.952;2023-09-18T00:33:15;3.92;;;2.78;;
67065;SDS011;53978;43.846;25.952;2023-09-18T00:35:44;6.65;;;2.40;;
67065;SDS011;53978;43.846;25.952;2023-09-18T00:38:11;4.47;;;2.65;;
67065;SDS011;53978;43.846;25.952;2023-09-18T00:40:36;5.63;;;2.35;;
67065;SDS011;53978;43.846;25.952;2023-09-18T00:43:01;2.72;;;2.53;;
67065;SDS011;53978;43.846;25.952;2023-09-18T00:45:27;4.00;;;2.30;;
67065;SDS011;53978;43.846;25.952;2023-09-18T00:47:52;4.45;;;2.75;;
67065;SDS011;53978;43.846;25.952;2023-09-18T00:50:19;5.82;;;3.15;;
67065;SDS011;53978;43.846;25.952;2023-09-18T00:52:44;5.22;;;3.45;;
67065;SDS011;53978;43.846;25.952;2023-09-18T00:55:10;7.00;;;3.30;;
67065;SDS011;53978;43.846;25.952;2023-09-18T00:57:36;4.35;;;2.83;;
67065;SDS011;53978;43.846;25.952;2023-09-18T01:00:03;5.55;;;2.78;;
67065;SDS011;53978;43.846;25.952;2023-09-18T01:02:30;3.75;;;2.58;;
67065;SDS011;53978;43.846;25.952;2023-09-18T01:04:56;3.97;;;2.22;;
67065;SDS011;53978;43.846;25.952;2023-09-18T01:07:22;5.72;;;2.50;;
67065;SDS011;53978;43.846;25.952;2023-09-18T01:09:48;2.90;;;2.50;;
67065;SDS011;53978;43.846;25.952;2023-09-18T01:12:58;2.97;;;2.28;;
67065;SDS011;53978;43.846;25.952;2023-09-18T01:15:07;4.05;;;2.53;;
67065;SDS011;53978;43.846;25.952;2023-09-18T01:17:38;5.10;;;2.30;;
67065;SDS011;53978;43.846;25.952;2023-09-18T01:20:05;4.43;;;2.20;;
67065;SDS011;53978;43.846;25.952;2023-09-18T01:22:31;2.85;;;2.08;;
67065;SDS011;53978;43.846;25.952;2023-09-18T01:24:57;4.15;;;2.33;;
67065;SDS011;53978;43.846;25.952;2023-09-18T01:27:22;2.85;;;2.20;;
67065;SDS011;53978;43.846;25.952;2023-09-18T01:29:48;3.38;;;2.28;;
67065;SDS011;53978;43.846;25.952;2023-09-18T01:32:14;7.00;;;2.25;;
67065;SDS011;53978;43.846;25.952;2023-09-18T01:34:49;20.33;;;3.30;;
67065;SDS011;53978;43.846;25.952;2023-09-18T01:37:17;5.50;;;2.70;;
67065;SDS011;53978;43.846;25.952;2023-09-18T01:39:46;5.05;;;2.13;;
67065;SDS011;53978;43.846;25.952;2023-09-18T01:42:12;4.10;;;2.25;;
67065;SDS011;53978;43.846;25.952;2023-09-18T01:44:38;2.53;;;2.10;;
67065;SDS011;53978;43.846;25.952;2023-09-18T01:47:06;5.32;;;2.20;;
67065;SDS011;53978;43.846;25.952;2023-09-18T01:49:33;4.47;;;2.40;;
67065;SDS011;53978;43.846;25.952;2023-09-18T01:52:00;4.07;;;2.42;;
67065;SDS011;53978;43.846;25.952;2023-09-18T01:54:26;3.33;;;2.22;;
67065;SDS011;53978;43.846;25.952;2023-09-18T01:56:52;4.57;;;2.33;;
67065;SDS011;53978;43.846;25.952;2023-09-18T01:59:18;5.68;;;2.60;;
67065;SDS011;53978;43.846;25.952;2023-09-18T02:01:44;5.70;;;2.70;;
67065;SDS011;53978;43.846;25.952;2023-09-18T02:04:09;3.63;;;2.28;;
67065;SDS011;53978;43.846;25.952;2023-09-18T02:06:35;4.00;;;2.50;;
67065;SDS011;53978;43.846;25.952;2023-09-18T02:09:01;3.38;;;2.63;;
67065;SDS011;53978;43.846;25.952;2023-09-18T02:11:26;3.10;;;2.30;;
67065;SDS011;53978;43.846;25.952;2023-09-18T02:13:52;6.35;;;2.65;;
67065;SDS011;53978;43.846;25.952;2023-09-18T02:16:17;6.07;;;2.40;;
67065;SDS011;53978;43.846;25.952;2023-09-18T02:18:48;2.90;;;2.40;;
67065;SDS011;53978;43.846;25.952;2023-09-18T02:21:19;2.72;;;2.33;;
67065;SDS011;53978;43.846;25.952;2023-09-18T02:23:45;3.42;;;2.55;;
67065;SDS011;53978;43.846;25.952;2023-09-18T02:26:13;3.13;;;2.42;;
67065;SDS011;53978;43.846;25.952;2023-09-18T02:28:39;2.92;;;2.47;;
67065;SDS011;53978;43.846;25.952;2023-09-18T02:31:04;6.53;;;2.55;;
67065;SDS011;53978;43.846;25.952;2023-09-18T02:33:30;5.03;;;2.38;;
67065;SDS011;53978;43.846;25.952;2023-09-18T02:35:55;4.05;;;2.25;;
67065;SDS011;53978;43.846;25.952;2023-09-18T02:38:21;6.93;;;2.60;;
67065;SDS011;53978;43.846;25.952;2023-09-18T02:40:46;3.58;;;2.55;;
67065;SDS011;53978;43.846;25.952;2023-09-18T02:43:11;7.28;;;2.75;;
67065;SDS011;53978;43.846;25.952;2023-09-18T02:45:37;3.13;;;2.60;;
67065;SDS011;53978;43.846;25.952;2023-09-18T02:48:02;3.75;;;2.60;;
67065;SDS011;53978;43.846;25.952;2023-09-18T02:50:28;5.25;;;2.50;;
67065;SDS011;53978;43.846;25.952;2023-09-18T02:52:53;2.97;;;2.15;;
67065;SDS011;53978;43.846;25.952;2023-09-18T02:55:19;3.67;;;2.50;;
67065;SDS011;53978;43.846;25.952;2023-09-18T02:57:44;5.20;;;2.30;;
67065;SDS011;53978;43.846;25.952;2023-09-18T03:00:10;5.72;;;2.50;;
67065;SDS011;53978;43.846;25.952;2023-09-18T03:02:35;4.40;;;2.38;;
67065;SDS011;53978;43.846;25.952;2023-09-18T03:05:01;5.10;;;2.50;;
67065;SDS011;53978;43.846;25.952;2023-09-18T03:07:26;2.50;;;2.28;;
67065;SDS011;53978;43.846;25.952;2023-09-18T03:09:54;2.85;;;2.50;;
67065;SDS011;53978;43.846;25.952;2023-09-18T03:12:20;3.90;;;2.40;;
67065;SDS011;53978;43.846;25.952;2023-09-18T03:14:47;5.55;;;2.58;;
67065;SDS011;53978;43.846;25.952;2023-09-18T03:17:13;5.68;;;2.55;;
67065;SDS011;53978;43.846;25.952;2023-09-18T03:19:38;4.15;;;2.35;;
67065;SDS011;53978;43.846;25.952;2023-09-18T03:22:04;3.95;;;2.40;;
67065;SDS011;53978;43.846;25.952;2023-09-18T03:24:29;3.60;;;2.60;;
67065;SDS011;53978;43.846;25.952;2023-09-18T03:26:55;3.47;;;2.50;;
67065;SDS011;53978;43.846;25.952;2023-09-18T03:29:20;3.72;;;2.53;;
67065;SDS011;53978;43.846;25.952;2023-09-18T03:31:45;12.25;;;3.22;;
67065;SDS011;53978;43.846;25.952;2023-09-18T03:34:11;5.15;;;2.70;;
67065;SDS011;53978;43.846;25.952;2023-09-18T03:36:36;3.42;;;2.55;;
67065;SDS011;53978;43.846;25.952;2023-09-18T03:39:04;6.05;;;2.75;;
67065;SDS011;53978;43.846;25.952;2023-09-18T03:41:30;7.15;;;3.03;;
67065;SDS011;53978;43.846;25.952;2023-09-18T03:43:59;3.03;;;2.40;;
67065;SDS011;53978;43.846;25.952;2023-09-18T03:46:25;5.43;;;3.03;;
67065;SDS011;53978;43.846;25.952;2023-09-18T03:48:51;11.45;;;3.05;;
67065;SDS011;53978;43.846;25.952;2023-09-18T03:51:16;3.92;;;2.88;;
67065;SDS011;53978;43.846;25.952;2023-09-18T03:53:43;5.20;;;2.55;;
67065;SDS011;53978;43.846;25.952;2023-09-18T03:56:09;5.97;;;2.70;;
67065;SDS011;53978;43.846;25.952;2023-09-18T03:58:34;10.43;;;2.70;;
67065;SDS011;53978;43.846;25.952;2023-09-18T04:01:00;2.97;;;2.35;;
67065;SDS011;53978;43.846;25.952;2023-09-18T04:03:26;5.68;;;3.20;;
67065;SDS011;53978;43.846;25.952;2023-09-18T04:05:51;5.05;;;2.95;;
67065;SDS011;53978;43.846;25.952;2023-09-18T04:08:16;6.03;;;3.00;;
67065;SDS011;53978;43.846;25.952;2023-09-18T04:10:42;7.85;;;3.88;;
67065;SDS011;53978;43.846;25.952;2023-09-18T04:13:08;6.32;;;3.92;;
67065;SDS011;53978;43.846;25.952;2023-09-18T04:15:34;9.88;;;3.95;;
67065;SDS011;53978;43.846;25.952;2023-09-18T04:18:03;9.80;;;4.40;;
67065;SDS011;53978;43.846;25.952;2023-09-18T04:20:31;13.65;;;4.32;;
67065;SDS011;53978;43.846;25.952;2023-09-18T04:25:45;7.45;;;3.78;;
67065;SDS011;53978;43.846;25.952;2023-09-18T04:28:12;10.40;;;4.32;;
67065;SDS011;53978;43.846;25.952;2023-09-18T04:30:38;8.55;;;4.30;;
67065;SDS011;53978;43.846;25.952;2023-09-18T04:33:03;14.88;;;3.92;;
67065;SDS011;53978;43.846;25.952;2023-09-18T04:35:29;9.52;;;3.83;;
67065;SDS011;53978;43.846;25.952;2023-09-18T04:37:56;4.63;;;3.05;;
67065;SDS011;53978;43.846;25.952;2023-09-18T04:40:22;6.25;;;3.47;;
67065;SDS011;53978;43.846;25.952;2023-09-18T04:42:48;19.52;;;7.05;;
67065;SDS011;53978;43.846;25.952;2023-09-18T04:45:14;13.15;;;4.40;;
67065;SDS011;53978;43.846;25.952;2023-09-18T04:47:41;7.45;;;3.78;;
67065;SDS011;53978;43.846;25.952;2023-09-18T04:50:07;13.13;;;4.15;;
67065;SDS011;53978;43.846;25.952;2023-09-18T04:52:34;7.07;;;3.13;;
67065;SDS011;53978;43.846;25.952;2023-09-18T04:54:59;3.28;;;2.97;;
67065;SDS011;53978;43.846;25.952;2023-09-18T04:57:25;7.35;;;3.20;;
67065;SDS011;53978;43.846;25.952;2023-09-18T04:59:50;12.70;;;3.75;;
67065;SDS011;53978;43.846;25.952;2023-09-18T05:02:16;5.57;;;3.20;;
67065;SDS011;53978;43.846;25.952;2023-09-18T05:04:41;5.10;;;3.72;;
67065;SDS011;53978;43.846;25.952;2023-09-18T05:07:07;9.73;;;4.30;;
67065;SDS011;53978;43.846;25.952;2023-09-18T05:09:32;13.52;;;4.50;;
67065;SDS011;53978;43.846;25.952;2023-09-18T05:11:59;8.48;;;4.38;;
67065;SDS011;53978;43.846;25.952;2023-09-18T05:14:25;7.45;;;4.25;;
67065;SDS011;53978;43.846;25.952;2023-09-18T05:16:50;6.63;;;4.13;;
67065;SDS011;53978;43.846;25.952;2023-09-18T05:19:16;7.65;;;4.53;;
67065;SDS011;53978;43.846;25.952;2023-09-18T05:21:41;8.15;;;4.32;;
67065;SDS011;53978;43.846;25.952;2023-09-18T05:24:07;9.05;;;4.75;;
67065;SDS011;53978;43.846;25.952;2023-09-18T05:26:32;6.35;;;4.32;;
67065;SDS011;53978;43.846;25.952;2023-09-18T05:28:58;9.05;;;4.72;;
67065;SDS011;53978;43.846;25.952;2023-09-18T05:31:24;6.65;;;4.32;;
67065;SDS011;53978;43.846;25.952;2023-09-18T05:33:49;16.58;;;4.63;;
67065;SDS011;53978;43.846;25.952;2023-09-18T05:36:15;17.95;;;5.20;;
67065;SDS011;53978;43.846;25.952;2023-09-18T05:38:41;7.80;;;4.85;;
67065;SDS011;53978;43.846;25.952;2023-09-18T05:41:08;6.50;;;4.10;;
67065;SDS011;53978;43.846;25.952;2023-09-18T05:43:34;6.40;;;4.10;;
67065;SDS011;53978;43.846;25.952;2023-09-18T05:46:01;9.90;;;4.45;;
67065;SDS011;53978;43.846;25.952;2023-09-18T05:48:26;11.55;;;4.50;;
67065;SDS011;53978;43.846;25.952;2023-09-18T05:50:52;6.55;;;4.03;;
67065;SDS011;53978;43.846;25.952;2023-09-18T05:53:19;5.70;;;4.03;;
67065;SDS011;53978;43.846;25.952;2023-09-18T05:55:45;11.63;;;4.32;;
67065;SDS011;53978;43.846;25.952;2023-09-18T05:58:10;6.40;;;4.20;;
67065;SDS011;53978;43.846;25.952;2023-09-18T06:00:36;5.32;;;4.25;;
67065;SDS011;53978;43.846;25.952;2023-09-18T06:03:02;11.10;;;4.28;;
67065;SDS011;53978;43.846;25.952;2023-09-18T06:05:28;10.43;;;4.43;;
67065;SDS011;53978;43.846;25.952;2023-09-18T06:07:56;5.22;;;3.72;;
67065;SDS011;53978;43.846;25.952;2023-09-18T06:10:21;6.47;;;4.05;;
67065;SDS011;53978;43.846;25.952;2023-09-18T06:12:47;9.02;;;3.97;;
67065;SDS011;53978;43.846;25.952;2023-09-18T06:15:12;16.20;;;4.07;;
67065;SDS011;53978;43.846;25.952;2023-09-18T06:17:38;11.90;;;4.07;;
67065;SDS011;53978;43.846;25.952;2023-09-18T06:20:05;31.38;;;9.18;;
67065;SDS011;53978;43.846;25.952;2023-09-18T06:22:34;10.57;;;5.25;;
67065;SDS011;53978;43.846;25.952;2023-09-18T06:24:59;5.85;;;3.92;;
67065;SDS011;53978;43.846;25.952;2023-09-18T06:27:25;4.32;;;3.67;;
67065;SDS011;53978;43.846;25.952;2023-09-18T06:29:50;7.78;;;3.70;;
67065;SDS011;53978;43.846;25.952;2023-09-18T06:32:16;7.40;;;3.63;;
67065;SDS011;53978;43.846;25.952;2023-09-18T06:34:41;8.10;;;4.05;;
67065;SDS011;53978;43.846;25.952;2023-09-18T06:37:09;9.50;;;3.70;;
67065;SDS011;53978;43.846;25.952;2023-09-18T06:39:37;9.07;;;4.15;;
67065;SDS011;53978;43.846;25.952;2023-09-18T06:42:03;9.57;;;4.00;;
67065;SDS011;53978;43.846;25.952;2023-09-18T06:44:29;5.57;;;3.65;;
67065;SDS011;53978;43.846;25.952;2023-09-18T06:46:54;7.13;;;3.63;;
67065;SDS011;53978;43.846;25.952;2023-09-18T06:49:20;5.05;;;3.60;;
67065;SDS011;53978;43.846;25.952;2023-09-18T06:51:45;10.18;;;3.65;;
67065;SDS011;53978;43.846;25.952;2023-09-18T06:54:11;6.50;;;3.35;;
67065;SDS011;53978;43.846;25.952;2023-09-18T06:56:36;8.57;;;3.60;;
67065;SDS011;53978;43.846;25.952;2023-09-18T06:59:02;5.35;;;3.95;;
67065;SDS011;53978;43.846;25.952;2023-09-18T07:01:27;8.27;;;3.78;;
67065;SDS011;53978;43.846;25.952;2023-09-18T07:03:53;7.90;;;4.13;;
67065;SDS011;53978;43.846;25.952;2023-09-18T07:06:18;9.10;;;3.90;;
67065;SDS011;53978;43.846;25.952;2023-09-18T07:08:45;11.25;;;4.55;;
67065;SDS011;53978;43.846;25.952;2023-09-18T07:11:12;6.25;;;4.07;;
67065;SDS011;53978;43.846;25.952;2023-09-18T07:13:37;6.30;;;4.43;;
67065;SDS011;53978;43.846;25.952;2023-09-18T07:16:03;9.07;;;4.80;;
67065;SDS011;53978;43.846;25.952;2023-09-18T07:18:29;10.55;;;4.88;;
67065;SDS011;53978;43.846;25.952;2023-09-18T07:20:54;9.18;;;4.13;;
67065;SDS011;53978;43.846;25.952;2023-09-18T07:23:20;4.45;;;3.70;;
67065;SDS011;53978;43.846;25.952;2023-09-18T07:25:47;7.47;;;4.03;;
67065;SDS011;53978;43.846;25.952;2023-09-18T07:28:12;7.60;;;4.05;;
67065;SDS011;53978;43.846;25.952;2023-09-18T07:30:40;9.73;;;3.92;;
67065;SDS011;53978;43.846;25.952;2023-09-18T07:33:06;6.45;;;4.03;;
67065;SDS011;53978;43.846;25.952;2023-09-18T07:35:32;4.82;;;3.60;;
67065;SDS011;53978;43.846;25.952;2023-09-18T07:37:57;5.53;;;3.65;;
67065;SDS011;53978;43.846;25.952;2023-09-18T07:40:23;4.65;;;3.42;;
67065;SDS011;53978;43.846;25.952;2023-09-18T07:42:48;13.40;;;3.63;;
67065;SDS011;53978;43.846;25.952;2023-09-18T07:45:13;7.18;;;3.85;;
67065;SDS011;53978;43.846;25.952;2023-09-18T07:47:39;6.05;;;3.65;;
67065;SDS011;53978;43.846;25.952;2023-09-18T07:50:04;5.30;;;3.60;;
67065;SDS011;53978;43.846;25.952;2023-09-18T07:52:31;7.53;;;3.50;;
67065;SDS011;53978;43.846;25.952;2023-09-18T07:54:57;9.38;;;3.40;;
67065;SDS011;53978;43.846;25.952;2023-09-18T07:57:26;5.15;;;3.40;;
67065;SDS011;53978;43.846;25.952;2023-09-18T07:59:55;8.63;;;3.17;;
67065;SDS011;53978;43.846;25.952;2023-09-18T08:02:20;6.40;;;3.33;;
67065;SDS011;53978;43.846;25.952;2023-09-18T08:04:46;3.60;;;3.17;;
67065;SDS011;53978;43.846;25.952;2023-09-18T08:07:12;5.72;;;3.40;;
67065;SDS011;53978;43.846;25.952;2023-09-18T08:09:37;7.18;;;3.15;;
67065;SDS011;53978;43.846;25.952;2023-09-18T08:12:04;2.80;;;2.60;;
67065;SDS011;53978;43.846;25.952;2023-09-18T08:14:30;5.65;;;2.97;;
67065;SDS011;53978;43.846;25.952;2023-09-18T08:16:56;4.97;;;3.00;;
67065;SDS011;53978;43.846;25.952;2023-09-18T08:19:23;3.17;;;2.80;;
67065;SDS011;53978;43.846;25.952;2023-09-18T08:21:51;3.40;;;2.80;;
67065;SDS011;53978;43.846;25.952;2023-09-18T08:24:17;4.47;;;2.85;;
67065;SDS011;53978;43.846;25.952;2023-09-18T08:26:43;6.75;;;2.70;;
67065;SDS011;53978;43.846;25.952;2023-09-18T08:29:08;3.35;;;3.00;;
67065;SDS011;53978;43.846;25.952;2023-09-18T08:31:34;6.43;;;2.95;;
67065;SDS011;53978;43.846;25.952;2023-09-18T08:33:59;4.88;;;2.97;;
67065;SDS011;53978;43.846;25.952;2023-09-18T08:36:25;5.45;;;3.28;;
67065;SDS011;53978;43.846;25.952;2023-09-18T08:38:50;6.00;;;3.15;;
67065;SDS011;53978;43.846;25.952;2023-09-18T08:41:18;5.20;;;3.00;;
67065;SDS011;53978;43.846;25.952;2023-09-18T08:43:44;3.10;;;2.65;;
67065;SDS011;53978;43.846;25.952;2023-09-18T08:46:11;3.38;;;2.80;;
67065;SDS011;53978;43.846;25.952;2023-09-18T08:48:36;9.52;;;2.67;;
67065;SDS011;53978;43.846;25.952;2023-09-18T08:51:03;3.80;;;3.08;;
67065;SDS011;53978;43.846;25.952;2023-09-18T08:53:32;3.17;;;2.85;;
67065;SDS011;53978;43.846;25.952;2023-09-18T08:55:59;3.63;;;2.85;;
67065;SDS011;53978;43.846;25.952;2023-09-18T08:58:36;3.67;;;2.88;;
67065;SDS011;53978;43.846;25.952;2023-09-18T09:01:04;4.22;;;2.58;;
67065;SDS011;53978;43.846;25.952;2023-09-18T09:03:31;2.70;;;2.50;;
67065;SDS011;53978;43.846;25.952;2023-09-18T09:05:57;2.67;;;2.47;;
67065;SDS011;53978;43.846;25.952;2023-09-18T09:08:25;3.47;;;2.78;;
67065;SDS011;53978;43.846;25.952;2023-09-18T09:10:50;3.28;;;2.90;;
67065;SDS011;53978;43.846;25.952;2023-09-18T09:13:16;7.80;;;2.78;;
67065;SDS011;53978;43.846;25.952;2023-09-18T09:15:45;6.50;;;2.80;;
67065;SDS011;53978;43.846;25.952;2023-09-18T09:18:12;3.10;;;2.78;;
67065;SDS011;53978;43.846;25.952;2023-09-18T09:20:39;4.85;;;2.80;;
67065;SDS011;53978;43.846;25.952;2023-09-18T09:23:05;2.83;;;2.50;;
67065;SDS011;53978;43.846;25.952;2023-09-18T09:25:32;3.75;;;2.63;;
67065;SDS011;53978;43.846;25.952;2023-09-18T09:27:59;4.20;;;2.75;;
67065;SDS011;53978;43.846;25.952;2023-09-18T09:30:26;5.53;;;3.15;;
67065;SDS011;53978;43.846;25.952;2023-09-18T09:32:53;8.00;;;3.13;;
67065;SDS011;53978;43.846;25.952;2023-09-18T09:37:46;8.30;;;3.33;;
67065;SDS011;53978;43.846;25.952;2023-09-18T09:40:12;6.07;;;3.53;;
67065;SDS011;53978;43.846;25.952;2023-09-18T09:42:39;9.20;;;3.00;;
67065;SDS011;53978;43.846;25.952;2023-09-18T09:45:10;4.78;;;3.17;;
67065;SDS011;53978;43.846;25.952;2023-09-18T09:47:37;3.20;;;2.90;;
67065;SDS011;53978;43.846;25.952;2023-09-18T09:50:10;4.90;;;2.67;;
67065;SDS011;53978;43.846;25.952;2023-09-18T09:52:42;6.88;;;2.85;;
67065;SDS011;53978;43.846;25.952;2023-09-18T09:55:25;3.58;;;2.90;;
67065;SDS011;53978;43.846;25.952;2023-09-18T10:00:27;4.93;;;2.97;;
67065;SDS011;53978;43.846;25.952;2023-09-18T10:02:58;4.45;;;2.90;;
67065;SDS011;53978;43.846;25.952;2023-09-18T10:05:26;3.78;;;2.78;;
67065;SDS011;53978;43.846;25.952;2023-09-18T10:07:53;4.88;;;3.08;;
67065;SDS011;53978;43.846;25.952;2023-09-18T10:10:20;6.22;;;3.10;;
67065;SDS011;53978;43.846;25.952;2023-09-18T10:12:45;4.00;;;3.08;;
67065;SDS011;53978;43.846;25.952;2023-09-18T10:15:14;4.97;;;3.63;;
67065;SDS011;53978;43.846;25.952;2023-09-18T10:17:42;4.13;;;3.15;;
67065;SDS011;53978;43.846;25.952;2023-09-18T10:20:14;3.78;;;2.95;;
67065;SDS011;53978;43.846;25.952;2023-09-18T10:22:52;5.47;;;2.83;;
67065;SDS011;53978;43.846;25.952;2023-09-18T10:27:53;3.53;;;3.22;;
67065;SDS011;53978;43.846;25.952;2023-09-18T10:30:23;4.50;;;3.35;;
67065;SDS011;53978;43.846;25.952;2023-09-18T10:32:50;10.38;;;3.25;;
67065;SDS011;53978;43.846;25.952;2023-09-18T10:35:16;5.18;;;3.33;;
67065;SDS011;53978;43.846;25.952;2023-09-18T10:37:43;5.20;;;3.22;;
67065;SDS011;53978;43.846;25.952;2023-09-18T10:40:08;4.18;;;3.22;;
67065;SDS011;53978;43.846;25.952;2023-09-18T10:42:35;10.43;;;3.17;;
67065;SDS011;53978;43.846;25.952;2023-09-18T10:45:09;4.45;;;3.40;;
67065;SDS011;53978;43.846;25.952;2023-09-18T10:47:39;3.95;;;2.97;;
67065;SDS011;53978;43.846;25.952;2023-09-18T10:50:06;4.65;;;2.85;;
67065;SDS011;53978;43.846;25.952;2023-09-18T10:52:43;4.53;;;3.00;;
67065;SDS011;53978;43.846;25.952;2023-09-18T10:55:12;6.03;;;3.53;;
67065;SDS011;53978;43.846;25.952;2023-09-18T10:57:52;3.85;;;3.00;;
67065;SDS011;53978;43.846;25.952;2023-09-18T11:00:18;4.43;;;3.00;;
67065;SDS011;53978;43.846;25.952;2023-09-18T11:02:49;7.63;;;3.63;;
67065;SDS011;53978;43.846;25.952;2023-09-18T11:05:25;9.95;;;3.28;;
67065;SDS011;53978;43.846;25.952;2023-09-18T11:13:31;4.70;;;3.10;;
67065;SDS011;53978;43.846;25.952;2023-09-18T11:16:00;7.60;;;3.95;;
67065;SDS011;53978;43.846;25.952;2023-09-18T11:18:37;8.63;;;3.10;;
67065;SDS011;53978;43.846;25.952;2023-09-18T11:21:12;4.18;;;3.10;;
67065;SDS011;53978;43.846;25.952;2023-09-18T11:23:38;5.20;;;2.60;;
67065;SDS011;53978;43.846;25.952;2023-09-18T11:26:10;3.88;;;3.22;;
67065;SDS011;53978;43.846;25.952;2023-09-18T11:28:36;5.82;;;2.90;;
67065;SDS011;53978;43.846;25.952;2023-09-18T11:31:02;4.80;;;2.75;;
67065;SDS011;53978;43.846;25.952;2023-09-18T11:33:32;3.83;;;2.67;;
67065;SDS011;53978;43.846;25.952;2023-09-18T11:36:05;3.65;;;2.97;;
67065;SDS011;53978;43.846;25.952;2023-09-18T11:38:32;3.42;;;2.88;;
67065;SDS011;53978;43.846;25.952;2023-09-18T11:40:59;4.15;;;2.88;;
67065;SDS011;53978;43.846;25.952;2023-09-18T11:43:27;4.60;;;2.90;;
67065;SDS011;53978;43.846;25.952;2023-09-18T11:45:58;4.18;;;2.60;;
67065;SDS011;53978;43.846;25.952;2023-09-18T11:48:25;7.55;;;2.78;;
67065;SDS011;53978;43.846;25.952;2023-09-18T11:50:58;3.75;;;3.00;;
67065;SDS011;53978;43.846;25.952;2023-09-18T11:53:24;3.17;;;2.83;;
67065;SDS011;53978;43.846;25.952;2023-09-18T11:55:52;5.07;;;2.80;;
67065;SDS011;53978;43.846;25.952;2023-09-18T11:58:17;4.65;;;2.70;;
67065;SDS011;53978;43.846;25.952;2023-09-18T12:00:47;3.60;;;3.03;;
67065;SDS011;53978;43.846;25.952;2023-09-18T12:03:13;3.30;;;2.92;;
67065;SDS011;53978;43.846;25.952;2023-09-18T12:05:52;2.97;;;2.67;;
67065;SDS011;53978;43.846;25.952;2023-09-18T12:08:18;3.42;;;3.00;;
67065;SDS011;53978;43.846;25.952;2023-09-18T12:10:44;7.13;;;2.70;;
67065;SDS011;53978;43.846;25.952;2023-09-18T12:13:12;3.80;;;3.08;;
67065;SDS011;53978;43.846;25.952;2023-09-18T12:15:38;6.97;;;3.00;;
67065;SDS011;53978;43.846;25.952;2023-09-18T12:18:08;4.38;;;3.00;;
67065;SDS011;53978;43.846;25.952;2023-09-18T12:20:36;3.65;;;3.20;;
67065;SDS011;53978;43.846;25.952;2023-09-18T12:23:02;3.33;;;3.03;;
67065;SDS011;53978;43.846;25.952;2023-09-18T12:25:27;2.80;;;2.60;;
67065;SDS011;53978;43.846;25.952;2023-09-18T12:27:53;5.10;;;2.90;;
67065;SDS011;53978;43.846;25.952;2023-09-18T12:30:19;4.75;;;2.80;;
67065;SDS011;53978;43.846;25.952;2023-09-18T12:32:46;5.85;;;2.90;;
67065;SDS011;53978;43.846;25.952;2023-09-18T12:35:16;7.60;;;3.00;;
67065;SDS011;53978;43.846;25.952;2023-09-18T12:37:43;3.28;;;2.88;;
67065;SDS011;53978;43.846;25.952;2023-09-18T12:40:22;3.85;;;2.88;;
67065;SDS011;53978;43.846;25.952;2023-09-18T12:42:47;5.63;;;2.78;;
67065;SDS011;53978;43.846;25.952;2023-09-18T12:45:13;3.97;;;2.67;;
67065;SDS011;53978;43.846;25.952;2023-09-18T12:47:38;3.08;;;2.72;;
67065;SDS011;53978;43.846;25.952;2023-09-18T12:50:04;3.63;;;2.67;;
67065;SDS011;53978;43.846;25.952;2023-09-18T12:52:35;6.00;;;2.85;;
67065;SDS011;53978;43.846;25.952;2023-09-18T12:55:01;4.22;;;3.05;;
67065;SDS011;53978;43.846;25.952;2023-09-18T12:57:28;4.20;;;2.67;;
67065;SDS011;53978;43.846;25.952;2023-09-18T12:59:54;4.75;;;2.95;;
67065;SDS011;53978;43.846;25.952;2023-09-18T13:02:20;3.53;;;3.05;;
67065;SDS011;53978;43.846;25.952;2023-09-18T13:04:55;3.45;;;2.88;;
67065;SDS011;53978;43.846;25.952;2023-09-18T13:07:22;5.88;;;2.88;;
67065;SDS011;53978;43.846;25.952;2023-09-18T13:09:57;4.50;;;2.88;;
67065;SDS011;53978;43.846;25.952;2023-09-18T13:12:39;3.05;;;2.75;;
67065;SDS011;53978;43.846;25.952;2023-09-18T13:15:07;3.60;;;2.72;;
67065;SDS011;53978;43.846;25.952;2023-09-18T13:17:41;5.47;;;2.92;;
67065;SDS011;53978;43.846;25.952;2023-09-18T13:20:24;5.20;;;2.80;;
67065;SDS011;53978;43.846;25.952;2023-09-18T13:22:57;4.45;;;2.97;;
67065;SDS011;53978;43.846;25.952;2023-09-18T13:25:45;3.78;;;2.80;;
67065;SDS011;53978;43.846;25.952;2023-09-18T13:28:11;7.63;;;3.17;;
67065;SDS011;53978;43.846;25.952;2023-09-18T13:30:38;2.90;;;2.63;;
67065;SDS011;53978;43.846;25.952;2023-09-18T13:33:08;5.32;;;2.80;;
67065;SDS011;53978;43.846;25.952;2023-09-18T13:35:35;8.75;;;2.72;;
67065;SDS011;53978;43.846;25.952;2023-09-18T13:38:03;3.00;;;2.70;;
67065;SDS011;53978;43.846;25.952;2023-09-18T13:40:31;5.90;;;2.78;;
67065;SDS011;53978;43.846;25.952;2023-09-18T13:42:58;7.68;;;3.15;;
67065;SDS011;53978;43.846;25.952;2023-09-18T13:45:23;8.65;;;2.78;;
67065;SDS011;53978;43.846;25.952;2023-09-18T13:47:49;5.38;;;3.30;;
67065;SDS011;53978;43.846;25.952;2023-09-18T13:50:15;10.52;;;2.97;;
67065;SDS011;53978;43.846;25.952;2023-09-18T13:52:40;4.97;;;2.80;;
67065;SDS011;53978;43.846;25.952;2023-09-18T13:55:06;5.22;;;3.03;;
67065;SDS011;53978;43.846;25.952;2023-09-18T13:57:32;4.28;;;2.80;;
67065;SDS011;53978;43.846;25.952;2023-09-18T13:59:59;3.63;;;2.67;;
67065;SDS011;53978;43.846;25.952;2023-09-18T14:02:25;4.78;;;3.00;;
67065;SDS011;53978;43.846;25.952;2023-09-18T14:04:55;4.25;;;3.00;;
67065;SDS011;53978;43.846;25.952;2023-09-18T14:07:21;4.07;;;3.28;;
67065;SDS011;53978;43.846;25.952;2023-09-18T14:09:47;3.80;;;2.88;;
67065;SDS011;53978;43.846;25.952;2023-09-18T14:12:13;3.50;;;3.17;;
67065;SDS011;53978;43.846;25.952;2023-09-18T14:14:38;3.85;;;3.17;;
67065;SDS011;53978;43.846;25.952;2023-09-18T14:17:05;5.10;;;3.15;;
67065;SDS011;53978;43.846;25.952;2023-09-18T14:19:31;7.75;;;3.20;;
67065;SDS011;53978;43.846;25.952;2023-09-18T14:21:56;6.50;;;3.05;;
67065;SDS011;53978;43.846;25.952;2023-09-18T14:24:22;5.45;;;2.97;;
67065;SDS011;53978;43.846;25.952;2023-09-18T14:26:51;3.80;;;3.00;;
67065;SDS011;53978;43.846;25.952;2023-09-18T14:29:16;5.28;;;3.17;;
67065;SDS011;53978;43.846;25.952;2023-09-18T14:31:42;6.88;;;3.30;;
67065;SDS011;53978;43.846;25.952;2023-09-18T14:34:07;4.40;;;2.97;;
67065;SDS011;53978;43.846;25.952;2023-09-18T14:36:36;3.92;;;3.53;;
67065;SDS011;53978;43.846;25.952;2023-09-18T14:39:02;3.40;;;3.00;;
67065;SDS011;53978;43.846;25.952;2023-09-18T14:41:28;8.98;;;3.25;;
67065;SDS011;53978;43.846;25.952;2023-09-18T14:43:54;3.85;;;3.42;;
67065;SDS011;53978;43.846;25.952;2023-09-18T14:46:20;6.03;;;3.38;;
67065;SDS011;53978;43.846;25.952;2023-09-18T14:48:46;3.38;;;3.00;;